createdAt,value
2018-08-18T00:04:39.000Z,44.041
2018-08-18T00:14:39.000Z,44.017
2018-08-18T00:24:39.000Z,44.004
2018-08-18T00:34:39.000Z,43.99
2018-08-18T00:44:39.000Z,44.007
2018-08-18T00:54:39.000Z,43.983
2018-08-18T01:04:39.000Z,43.969
2018-08-18T01:14:39.000Z,43.987
2018-08-18T01:24:39.000Z,43.973
2018-08-18T01:34:39.000Z,43.96
2018-08-18T01:44:40.000Z,43.947
2018-08-18T01:54:40.000Z,44.033
2018-08-18T02:04:40.000Z,44.018
2018-08-18T02:14:40.000Z,43.995
2018-08-18T02:24:40.000Z,43.981
2018-08-18T02:34:40.000Z,43.989
2018-08-18T02:44:40.000Z,44.018
2018-08-18T02:54:40.000Z,44.058
2018-08-18T03:04:40.000Z,44.045
2018-08-18T03:14:40.000Z,44.064
2018-08-18T03:24:40.000Z,44.15
2018-08-18T03:34:40.000Z,44.236
2018-08-18T03:44:40.000Z,44.288
2018-08-18T03:54:40.000Z,44.307
2018-08-18T04:04:40.000Z,44.293
2018-08-18T04:14:40.000Z,44.281
2018-08-18T04:24:40.000Z,44.352
2018-08-18T04:34:40.000Z,44.264
2018-08-18T04:44:44.000Z,44.282
2018-08-18T04:54:43.000Z,44.29
2018-08-18T05:04:40.000Z,44.213
2018-08-18T05:14:44.000Z,44.243
2018-08-18T05:24:40.000Z,44.242
2018-08-18T05:34:40.000Z,44.218
2018-08-18T05:44:40.000Z,44.229
2018-08-18T05:54:40.000Z,44.1
2018-08-18T06:04:40.000Z,44.167
2018-08-18T06:14:40.000Z,43.996
2018-08-18T06:24:40.000Z,43.944
2018-08-18T06:34:40.000Z,43.849
2018-08-18T06:44:40.000Z,43.688
2018-08-18T06:54:40.000Z,43.545
2018-08-18T07:04:40.000Z,43.407
2018-08-18T07:14:40.000Z,43.301
2018-08-18T07:24:40.000Z,43.278
2018-08-18T07:34:40.000Z,43.001
2018-08-18T07:44:40.000Z,42.731
2018-08-18T07:54:40.000Z,42.409
2018-08-18T08:04:40.000Z,42.111
2018-08-18T08:14:40.000Z,41.784
2018-08-18T08:24:40.000Z,41.431
2018-08-18T08:34:40.000Z,41.089
2018-08-18T08:44:40.000Z,40.889
2018-08-18T08:54:40.000Z,40.875
2018-08-18T09:04:40.000Z,40.719
2018-08-18T09:14:40.000Z,40.468
2018-08-18T09:24:40.000Z,39.936
2018-08-18T09:34:41.000Z,39.583
2018-08-18T09:44:43.000Z,39.213
2018-08-18T09:54:40.000Z,39.15
2018-08-18T10:04:41.000Z,38.722
2018-08-18T10:14:41.000Z,37.99
2018-08-18T10:24:41.000Z,37.965
2018-08-18T10:34:41.000Z,37.545
2018-08-18T10:44:41.000Z,37.496
2018-08-18T10:54:41.000Z,37.721
2018-08-18T11:04:41.000Z,36.739
2018-08-18T11:14:41.000Z,36.789
2018-08-18T11:24:41.000Z,36.326
2018-08-18T11:34:41.000Z,35.978
2018-08-18T11:44:41.000Z,35.651
2018-08-18T11:54:41.000Z,35.601
2018-08-18T12:04:41.000Z,35.506
2018-08-18T12:14:41.000Z,35.141
2018-08-18T12:24:41.000Z,34.795
2018-08-18T12:34:41.000Z,34.754
2018-08-18T12:44:41.000Z,34.464
2018-08-18T12:54:41.000Z,34.687
2018-08-18T13:04:41.000Z,34.726
2018-08-18T13:14:41.000Z,34.479
2018-08-18T13:24:41.000Z,34.413
2018-08-18T13:34:41.000Z,34.391
2018-08-18T13:44:41.000Z,34.083
2018-08-18T13:54:41.000Z,34.169
2018-08-18T14:04:41.000Z,34.227
2018-08-18T14:14:41.000Z,33.624
2018-08-18T14:24:41.000Z,33.556
2018-08-18T14:34:41.000Z,33.251
2018-08-18T14:44:41.000Z,33.794
2018-08-18T14:54:41.000Z,33.237
2018-08-18T15:04:41.000Z,33.29
2018-08-18T15:14:41.000Z,33.971
2018-08-18T15:24:41.000Z,34.326
2018-08-18T15:34:41.000Z,34.579
2018-08-18T15:44:41.000Z,34.669
2018-08-18T15:54:41.000Z,34.833
2018-08-18T16:04:41.000Z,34.933
2018-08-18T16:14:41.000Z,34.978
2018-08-18T16:24:41.000Z,35.175
2018-08-18T16:34:41.000Z,35.374
2018-08-18T16:44:41.000Z,35.603
2018-08-18T16:54:41.000Z,35.713
2018-08-18T17:04:41.000Z,35.603
2018-08-18T17:14:41.000Z,36.001
2018-08-18T17:24:41.000Z,36.654
2018-08-18T17:34:42.000Z,36.333
2018-08-18T17:44:41.000Z,36.487
2018-08-18T17:54:41.000Z,36.671
2018-08-18T18:04:42.000Z,36.694
2018-08-18T18:14:42.000Z,36.703
2018-08-18T18:24:42.000Z,36.734
2018-08-18T18:34:42.000Z,36.82
2018-08-18T18:44:42.000Z,36.916
2018-08-18T18:54:42.000Z,37.024
2018-08-18T19:04:42.000Z,37.043
2018-08-18T19:14:42.000Z,37.174
2018-08-18T19:24:42.000Z,37.249
2018-08-18T19:34:42.000Z,37.367
2018-08-18T19:44:42.000Z,37.42
2018-08-18T19:54:42.000Z,37.496
2018-08-18T20:04:42.000Z,37.583
2018-08-18T20:14:42.000Z,37.689
2018-08-18T20:24:42.000Z,37.777
2018-08-18T20:34:42.000Z,38.004
2018-08-18T20:44:42.000Z,37.789
2018-08-18T20:54:42.000Z,37.977
2018-08-18T21:04:42.000Z,38.41
2018-08-18T21:14:42.000Z,38.458
2018-08-18T21:24:42.000Z,38.892
2018-08-18T21:34:42.000Z,38.844
2018-08-18T21:44:42.000Z,38.797
2018-08-18T21:54:42.000Z,38.841
2018-08-18T22:04:42.000Z,38.88
2018-08-18T22:14:42.000Z,38.955
2018-08-18T22:24:42.000Z,39.162
2018-08-18T22:34:42.000Z,39.072
2018-08-18T22:44:42.000Z,39.026
2018-08-18T22:54:42.000Z,39.144
2018-08-18T23:04:42.000Z,39.126
2018-08-18T23:14:42.000Z,39.188
2018-08-18T23:24:42.000Z,39.122
2018-08-18T23:34:42.000Z,39.273
2018-08-18T23:44:42.000Z,39.26
2018-08-18T23:54:42.000Z,39.26
